• Join FlightAware (Why Join?)
  • Login
  • US Flag 
11:12AM EDT


 

Airport Tracker/Info


-or-


 

Live Flight TrackerFlight Track Log ✈ UAL4550 ✈ 22-Apr-2013 ✈ KSLC - KIAH

Flight Track Log - Related Links

Times and Time Zones

All times are in EDT time to prevent confusion due to time zone crossing. See the UAL4550 flight status page for this flight to view local times or setup timezone preferences in your user account.

Time Position Orientation Groundspeed Altitude Reporting Facility
EDT Latitude Longitude Course Direction KTS MPH feet Rate Location/Type
02:54PM 40.7989 -111.9622 165° South 165 190 4,800  Level Salt Lake Center
02:54PM 40.8147 -111.9653 352° North 203 234 5,600 1,860 Climbing Salt Lake Center
02:55PM 40.8789 -111.9747 354° North 230 265 7,300 1,560 Climbing Salt Lake Center
02:56PM 40.8967 -111.9753 359° North 237 273 7,900 2,400 Climbing Salt Lake Center
02:56PM 40.9492 -111.9819 355° North 252 290 9,700 2,760 Climbing Salt Lake Center
02:57PM 41.1013 -111.9700 51° Northeast  Level FlightAware Approximate
02:57PM 40.9808 -111.9878 352° North 251 289 10,800  Level Salt Lake Center
02:58PM 41.1333 -111.8385 90° East  Level FlightAware Approximate
02:58PM 41.0531 -112.0083 348° North 262 302 12,700  Level Salt Lake Center
02:59PM 41.0683 -111.7445 165° South  Level FlightAware Approximate
02:59PM 41.1194 -111.9544 31° Northeast 312 359 14,200  Level Salt Lake Center
03:00PM 41.0936 -111.8353 106° East 352 405 15,300 1,140 Climbing Salt Lake Center
03:01PM 41.0283 -111.7653 141° Southeast 355 409 16,600 1,200 Climbing Salt Lake Center
03:02PM 40.9281 -111.6569 141° Southeast 386 444 17,800 1,260 Climbing Salt Lake Center
03:03PM 40.8408 -111.5639 141° Southeast 399 459 19,200 1,320 Climbing Salt Lake Center
03:04PM 40.7503 -111.4669 141° Southeast 417 480 20,600 1,080 Climbing Salt Lake Center
03:05PM 40.6747 -111.3403 128° Southeast 457 526 21,500 1,020 Climbing Salt Lake Center
03:06PM 40.6267 -111.1778 111° Southeast 473 544 22,800 1,500 Climbing Salt Lake Center
03:07PM 40.5792 -111.0133 111° Southeast 481 554 24,700 1,800 Climbing Salt Lake Center
03:08PM 40.5319 -110.8519 111° Southeast 477 549 26,500 1,740 Climbing Salt Lake Center
03:09PM 40.4761 -110.6614 111° Southeast 469 540 28,300 1,500 Climbing Salt Lake Center
03:10PM 40.4272 -110.5039 112° Southeast 465 535 29,700 1,260 Climbing Salt Lake Center
03:11PM 40.3497 -110.3847 130° Southeast 451 519 31,000 1,440 Climbing Salt Lake Center
03:12PM 40.2522 -110.2597 136° Southeast 442 509 32,700 1,620 Climbing Salt Lake Center
03:13PM 40.1700 -110.1564 136° Southeast 432 497 34,400 1,080 Climbing Salt Lake Center
03:14PM 40.1017 -110.0400 127° Southeast 424 488 35,000 240 Climbing Salt Lake Center
03:15PM 40.0208 -109.8858 124° Southeast 456 525 35,000  Level Salt Lake Center
03:16PM 39.9472 -109.7461 124° Southeast 484 557 35,000  Level Salt Lake Center
03:17PM 39.8567 -109.5753 125° Southeast 511 588 35,000  Level Salt Lake Center
03:18PM 39.8161 -109.4972 124° Southeast 524 603 35,000  Level Denver Center
03:19PM 39.7342 -109.3456 125° Southeast 536 617 35,000  Level Denver Center
03:19PM 39.6786 -109.2447 126° Southeast 542 624 35,000  Level Salt Lake Center
03:20PM 39.5964 -109.0917 125° Southeast 544 626 35,000  Level Salt Lake Center
03:21PM 39.5550 -109.0119 124° Southeast 548 631 35,000  Level Denver Center
03:22PM 39.4586 -108.8375 126° Southeast 547 629 35,000  Level Denver Center
03:23PM 39.3756 -108.6853 125° Southeast 547 629 35,000  Level Denver Center
03:24PM 39.2781 -108.5072 125° Southeast 548 631 35,000  Level Denver Center
03:25PM 39.1944 -108.3547 125° Southeast 547 629 35,000  Level Denver Center
03:26PM 39.0958 -108.1781 126° Southeast 544 626 35,000  Level Denver Center
03:27PM 39.0111 -108.0253 125° Southeast 547 629 35,000  Level Denver Center
03:28PM 38.9131 -107.8497 126° Southeast 544 626 35,000  Level Denver Center
03:29PM 38.8289 -107.7006 126° Southeast 541 623 35,000  Level Denver Center
03:30PM 38.7442 -107.5511 126° Southeast 541 623 35,000  Level Denver Center
03:31PM 38.6450 -107.3775 126° Southeast 540 621 35,000  Level Denver Center
03:32PM 38.5606 -107.2294 126° Southeast 540 621 35,000  Level Denver Center
03:33PM 38.4714 -107.0744 126° Southeast 538 619 35,000  Level Denver Center
03:34PM 38.3844 -106.9192 126° Southeast 537 618 35,000  Level Denver Center
03:35PM 38.2817 -106.7372 126° Southeast 535 616 35,000  Level Denver Center
03:36PM 38.1978 -106.5889 126° Southeast 540 621 35,000  Level Denver Center
03:37PM 38.1058 -106.4239 125° Southeast 540 621 35,000  Level Denver Center
03:38PM 38.0122 -106.2597 126° Southeast 535 616 35,000  Level Denver Center
03:39PM 37.9286 -106.1128 126° Southeast 538 619 35,000  Level Denver Center
03:40PM 37.8453 -105.9661 126° Southeast 538 619 35,000  Level Denver Center
03:41PM 37.7467 -105.7975 126° Southeast 534 615 35,000  Level Denver Center
03:42PM 37.6633 -105.6533 126° Southeast 531 611 35,000  Level Denver Center
03:44PM 37.5686 -105.4858 125° Southeast 528 608 35,000  Level Denver Center
03:45PM 37.4756 -105.3283 127° Southeast 529 609 35,000  Level Denver Center
03:46PM 37.3914 -105.1839 126° Southeast 533 613 35,000  Level Denver Center
03:47PM 37.3025 -105.0342 127° Southeast 529 609 35,000  Level Denver Center
03:48PM 37.2044 -104.8686 127° Southeast 531 611 35,000  Level Denver Center
03:49PM 37.1217 -104.7275 126° Southeast 528 608 35,000  Level Denver Center
03:50PM 36.9844 -104.4964 127° Southeast 522 601 35,000  Level Albuquerque Center
03:51PM 36.9425 -104.4286 128° Southeast 519 597 35,000  Level Denver Center
03:51PM 36.9022 -104.3592 126° Southeast 519 597 35,000  Level Albuquerque Center
03:52PM 36.8053 -104.2003 127° Southeast 517 595 35,000  Level Albuquerque Center
03:53PM 36.7228 -104.0639 127° Southeast 517 595 35,000  Level Albuquerque Center
03:54PM 36.6328 -103.9156 127° Southeast 516 594 35,000  Level Albuquerque Center
03:55PM 36.5444 -103.7742 128° Southeast 514 592 35,000  Level Albuquerque Center
03:56PM 36.4583 -103.6331 127° Southeast 510 587 35,000  Level Albuquerque Center
03:57PM 36.3561 -103.4686 128° Southeast 509 586 35,000  Level Albuquerque Center
03:58PM 36.2686 -103.3247 127° Southeast 513 590 35,000  Level Albuquerque Center
04:00PM 36.1797 -103.1825 128° Southeast 515 593 35,000  Level Albuquerque Center
04:01PM 36.0919 -103.0414 128° Southeast 513 590 35,000  Level Albuquerque Center
04:02PM 35.9950 -102.8886 128° Southeast 512 589 35,000  Level Albuquerque Center
04:03PM 35.9081 -102.7503 128° Southeast 511 588 35,000  Level Albuquerque Center
04:04PM 35.8217 -102.6133 128° Southeast 509 586 35,000  Level Albuquerque Center
04:05PM 35.7347 -102.4761 128° Southeast 508 585 35,000  Level Albuquerque Center
04:06PM 35.6475 -102.3394 128° Southeast 509 586 35,000  Level Albuquerque Center
04:07PM 35.5589 -102.2028 129° Southeast 511 588 35,000  Level Albuquerque Center
04:08PM 35.4536 -102.0383 128° Southeast 511 588 35,000  Level Albuquerque Center
04:09PM 35.3711 -101.9053 127° Southeast 509 586 35,000  Level Albuquerque Center
04:10PM 35.2817 -101.7672 128° Southeast 510 587 35,000  Level Albuquerque Center
04:11PM 35.1894 -101.6300 129° Southeast 514 592 35,000  Level Albuquerque Center
04:12PM 35.1036 -101.4925 127° Southeast 510 587 35,000  Level Albuquerque Center
04:13PM 35.0047 -101.3417 129° Southeast 509 586 35,000  Level Albuquerque Center
04:14PM 34.9167 -101.2067 128° Southeast 511 588 35,000  Level Albuquerque Center
04:15PM 34.8289 -101.0717 128° Southeast 510 587 35,000  Level Albuquerque Center
04:16PM 34.7411 -100.9383 129° Southeast 508 585 35,000  Level Albuquerque Center
04:17PM 34.6525 -100.8028 128° Southeast 511 588 35,000  Level Albuquerque Center
04:18PM 34.5461 -100.6414 129° Southeast 511 588 35,000  Level Albuquerque Center
04:19PM 34.4567 -100.5069 129° Southeast 513 590 35,000  Level Albuquerque Center
04:20PM 34.3681 -100.3750 129° Southeast 509 586 35,000  Level Albuquerque Center
04:21PM 34.3031 -100.2819 130° Southeast 506 582 35,000  Level Fort Worth Center
04:22PM 34.2164 -100.1461 128° Southeast 506 582 35,000  Level Fort Worth Center
04:23PM 34.1275 -100.0178 130° Southeast 506 582 35,000  Level Fort Worth Center
04:24PM 34.0383 -99.8822 128° Southeast 506 582 35,000  Level Fort Worth Center
04:25PM 33.9489 -99.7519 130° Southeast 506 582 35,000  Level Fort Worth Center
04:26PM 33.8617 -99.6222 129° Southeast 506 582 35,000  Level Fort Worth Center
04:27PM 33.7700 -99.4900 130° Southeast 506 582 35,000  Level Fort Worth Center
04:28PM 33.6803 -99.3606 130° Southeast 506 582 35,000  Level Fort Worth Center
04:29PM 33.5925 -99.2289 129° Southeast 506 582 35,000  Level Fort Worth Center
04:30PM 33.5003 -99.1000 131° Southeast 501 577 35,000  Level Fort Worth Center
04:31PM 33.4103 -98.9686 129° Southeast 507 583 35,000  Level Fort Worth Center
04:32PM 33.3219 -98.8406 130° Southeast 502 578 35,000  Level Fort Worth Center
04:33PM 33.2294 -98.7122 131° Southeast 508 585 35,000  Level Fort Worth Center
04:34PM 33.1431 -98.5844 129° Southeast 508 585 35,000  Level Fort Worth Center
04:35PM 33.0586 -98.4694 131° Southeast 503 579 35,000  Level Fort Worth Center
04:36PM 32.9717 -98.3469 130° Southeast 503 579 35,000  Level Fort Worth Center
04:37PM 32.8828 -98.2222 130° Southeast 498 573 35,000  Level Fort Worth Center
04:38PM 32.7939 -98.0956 130° Southeast 498 573 35,000  Level Fort Worth Center
04:39PM 32.7069 -97.9739 130° Southeast 498 573 35,000  Level Fort Worth Center
04:40PM 32.6072 -97.8525 134° Southeast 503 579 35,000  Level Fort Worth Center
04:41PM 32.5114 -97.7336 134° Southeast 497 572 35,000  Level Fort Worth Center
04:42PM 32.4178 -97.6153 133° Southeast 491 565 35,000  Level Fort Worth Center
04:43PM 32.3219 -97.4969 134° Southeast 496 571 35,000  Level Fort Worth Center
04:44PM 32.2281 -97.3814 134° Southeast 496 571 35,000  Level Fort Worth Center
04:45PM 32.1319 -97.2614 133° Southeast 496 571 35,000  Level Fort Worth Center
04:46PM 32.0272 -97.1364 135° Southeast 496 571 35,000  Level Fort Worth Center
04:47PM 31.9289 -97.0119 133° Southeast 496 571 35,000  Level Fort Worth Center
04:48PM 31.8344 -96.8950 134° Southeast 503 579 35,000  Level Fort Worth Center
04:49PM 31.7358 -96.7808 135° Southeast 498 573 35,000 -360 Level Fort Worth Center
04:50PM 31.6197 -96.6386 134° Southeast 499 574 34,300 -1,320 Descending Houston Center
04:51PM 31.5256 -96.5292 135° Southeast 482 555 31,900 -2,520 Descending Houston Center
04:52PM 31.3789 -96.4636 159° South 474 545 29,100 -2,520 Descending Houston Center
04:53PM 31.2489 -96.4144 162° South 488 562 26,800 -2,460 Descending Houston Center
04:54PM 31.1186 -96.3664 162° South 490 564 24,100 -3,000 Descending Houston Center
04:55PM 31.0006 -96.3206 162° South 454 522 20,700 -3,240 Descending Houston Center
04:56PM 30.8903 -96.2806 163° South 420 483 17,500 -2,940 Descending Houston Center
04:57PM 30.7761 -96.2036 150° Southeast 409 471 14,700 -2,520 Descending Houston Center
04:58PM 30.7253 -96.1494 138° Southeast 385 443 13,300 -1,800 Descending Houston Center
04:58PM 30.6969 -96.1211 139° Southeast 388 447 12,900 -1,440 Descending Houston Center
04:59PM 30.6631 -96.0836 136° Southeast 371 427 12,100 -1,260 Descending Houston Center
04:59PM 30.6253 -96.0447 138° Southeast 370 426 11,600 -1,140 Descending Houston Center
05:00PM 30.5850 -96.0028 138° Southeast 360 414 11,000 -1,020 Descending Houston Center
05:01PM 30.5522 -95.9658 136° Southeast 359 413 10,600 -900 Descending Houston Center
05:01PM 30.5133 -95.9264 139° Southeast 344 396 10,100 -600 Descending Houston Center
05:02PM 30.4842 -95.8953 137° Southeast 334 384 10,000 -120 Descending Houston Center
05:02PM 30.4489 -95.8611 140° Southeast 304 350 10,000 60 Level Houston Center
05:03PM 30.4214 -95.8331 139° Southeast 301 346 10,100  Climbing Houston Center
05:03PM 30.3733 -95.8142 161° South 306 352 10,000 -540 Descending Houston Center
05:04PM 30.3258 -95.8117 177° South 297 342 9,600 -900 Descending Houston Center
05:04PM 30.2894 -95.8142 183° South 294 338 9,100 -1,380 Descending Houston Center
05:05PM 30.2447 -95.8144 180° South 293 337 8,200 -1,080 Descending Houston Center
05:05PM 30.2097 -95.8164 183° South 284 327 8,000 -240 Descending Houston Center
05:06PM 30.1717 -95.7914 150° Southeast 290 334 8,000  Level Houston Center
05:06PM 30.1367 -95.7717 154° Southeast 287 330 8,000 -540 Level Houston Center
05:07PM 30.1011 -95.7497 152° Southeast 286 329 7,500 -840 Descending Houston Center
05:07PM 30.0678 -95.7289 152° Southeast 263 303 7,200 -600 Descending Houston Center
05:08PM 30.0392 -95.7106 151° Southeast 261 300 6,900 -900 Descending Houston Center
05:08PM 30.0122 -95.6944 153° Southeast 227 261 6,300 -1,500 Descending Houston Center
05:09PM 29.9933 -95.6494 116° Southeast 237 273 5,400 -1,380 Descending Houston Center
05:09PM 29.9914 -95.6247 95° East 230 265 4,900 -1,500 Descending Houston Center
05:10PM 29.9936 -95.5756 87° East 234 269 3,900 -1,200 Descending Houston Center
05:11PM 29.9944 -95.5106 89° East 220 253 2,800 -1,080 Descending Houston Center